createdAt,value
2022-12-08T00:02:32.269Z,78.07
2022-12-08T00:05:53.849Z,78.20
2022-12-08T00:09:14.781Z,78.06
2022-12-08T00:12:17.447Z,78.34
2022-12-08T00:15:19.735Z,78.44
2022-12-08T00:18:22.268Z,78.30
2022-12-08T00:21:24.579Z,78.18
2022-12-08T00:24:31.325Z,78.25
2022-12-08T00:27:33.598Z,78.35
2022-12-08T00:30:39.300Z,78.24
2022-12-08T00:33:41.553Z,78.34
2022-12-08T00:36:44.332Z,78.43
2022-12-08T00:39:46.548Z,78.36
2022-12-08T00:42:49.115Z,78.58
2022-12-08T00:45:51.407Z,78.33
2022-12-08T00:48:53.995Z,78.03
2022-12-08T00:51:56.639Z,78.20
2022-12-08T00:54:59.199Z,78.33
2022-12-08T00:58:01.585Z,78.36
2022-12-08T01:01:14.236Z,78.33
2022-12-08T01:04:18.332Z,78.19
2022-12-08T01:07:20.904Z,78.26
2022-12-08T01:10:23.153Z,78.44
2022-12-08T01:13:25.627Z,78.17
2022-12-08T01:16:30.465Z,78.51
2022-12-08T01:19:33.233Z,78.57
2022-12-08T01:22:36.170Z,78.61
2022-12-08T01:25:38.831Z,78.77
2022-12-08T01:28:42.331Z,78.90
2022-12-08T01:31:45.054Z,78.80
2022-12-08T01:34:47.322Z,78.93
2022-12-08T01:37:50.722Z,79.37
2022-12-08T01:40:52.972Z,79.46
2022-12-08T01:44:23.685Z,80.38
2022-12-08T01:47:30.567Z,81.34
2022-12-08T01:50:34.050Z,81.89
2022-12-08T01:53:36.957Z,82.12
2022-12-08T01:56:55.234Z,81.35
2022-12-08T02:00:07.092Z,80.76
2022-12-08T02:03:16.152Z,80.92
2022-12-08T02:06:19.656Z,81.10
2022-12-08T02:09:22.485Z,82.42
2022-12-08T02:12:24.894Z,82.43
2022-12-08T02:16:02.363Z,82.48
2022-12-08T02:19:32.364Z,82.65
2022-12-08T02:22:53.851Z,82.32
2022-12-08T02:26:23.895Z,83.02
2022-12-08T02:30:02.546Z,83.17
2022-12-08T02:33:26.521Z,83.03
2022-12-08T02:36:51.661Z,82.96
2022-12-08T02:39:56.929Z,82.92
2022-12-08T02:43:16.930Z,82.39
2022-12-08T02:46:24.749Z,82.25
2022-12-08T02:49:33.151Z,82.57
2022-12-08T02:52:40.701Z,82.52
2022-12-08T02:56:04.874Z,82.58
2022-12-08T02:59:32.402Z,83.10
2022-12-08T03:03:03.926Z,83.47
2022-12-08T03:06:37.027Z,83.33
2022-12-08T03:09:50.123Z,83.28
2022-12-08T03:13:15.794Z,83.19
2022-12-08T03:16:25.641Z,83.36
2022-12-08T03:19:33.840Z,83.08
2022-12-08T03:22:39.295Z,83.22
2022-12-08T03:25:49.531Z,83.43
2022-12-08T03:28:52.083Z,83.31
2022-12-08T03:32:01.236Z,83.23
2022-12-08T03:35:09.240Z,83.23
2022-12-08T03:38:15.584Z,83.21
2022-12-08T03:41:18.538Z,83.10
2022-12-08T03:44:20.742Z,83.12
2022-12-08T03:47:23.502Z,83.04
2022-12-08T03:50:26.303Z,82.83
2022-12-08T03:53:28.845Z,82.75
2022-12-08T03:56:36.971Z,82.69
2022-12-08T03:59:39.668Z,82.57
2022-12-08T04:02:42.048Z,82.47
2022-12-08T04:05:44.590Z,82.25
2022-12-08T04:08:46.973Z,82.22
2022-12-08T04:11:52.297Z,81.96
2022-12-08T04:14:54.536Z,82.04
2022-12-08T04:17:57.082Z,81.67
2022-12-08T04:20:59.304Z,82.04
2022-12-08T04:24:02.572Z,82.53
2022-12-08T04:27:04.866Z,82.80
2022-12-08T04:30:08.282Z,83.02
2022-12-08T04:33:10.887Z,82.95
2022-12-08T04:36:13.422Z,83.07
2022-12-08T04:39:15.683Z,83.02
2022-12-08T04:42:18.234Z,83.09
2022-12-08T04:45:20.514Z,83.26
2022-12-08T04:48:23.173Z,83.68
2022-12-08T04:51:27.328Z,83.38
2022-12-08T04:54:30.421Z,83.70
2022-12-08T04:57:32.769Z,83.19
2022-12-08T05:00:35.243Z,83.11
2022-12-08T05:03:37.734Z,82.90
2022-12-08T05:06:40.244Z,82.77
2022-12-08T05:09:42.604Z,82.86
2022-12-08T05:12:45.129Z,82.78
2022-12-08T05:15:47.447Z,82.79
2022-12-08T05:18:50.025Z,82.81
2022-12-08T05:21:52.261Z,82.75
2022-12-08T05:24:54.866Z,82.69
2022-12-08T05:28:17.472Z,82.67
2022-12-08T05:31:19.758Z,82.53
2022-12-08T05:34:22.147Z,82.48
2022-12-08T05:37:24.700Z,82.23
2022-12-08T05:40:27.152Z,82.47
2022-12-08T05:43:29.795Z,82.54
2022-12-08T05:46:32.235Z,82.74
2022-12-08T05:49:34.795Z,82.00
2022-12-08T05:52:37.134Z,81.46
2022-12-08T05:55:39.706Z,82.00
2022-12-08T05:58:42.414Z,81.68
2022-12-08T06:01:45.002Z,81.76
2022-12-08T06:04:47.563Z,81.89
2022-12-08T06:07:49.902Z,81.82
2022-12-08T06:10:52.519Z,81.72
2022-12-08T06:13:56.666Z,81.62
2022-12-08T06:16:59.215Z,81.61
2022-12-08T06:20:02.115Z,81.99
2022-12-08T06:23:04.894Z,81.93
2022-12-08T06:26:13.412Z,82.01
2022-12-08T06:29:15.956Z,81.89
2022-12-08T06:32:20.808Z,81.95
2022-12-08T06:35:26.998Z,82.14
2022-12-08T06:38:29.856Z,81.98
2022-12-08T06:41:32.442Z,81.99
2022-12-08T06:44:34.707Z,81.75
2022-12-08T06:47:37.408Z,81.68
2022-12-08T06:50:39.697Z,81.42
2022-12-08T06:53:43.293Z,81.48
2022-12-08T06:56:45.568Z,81.31
2022-12-08T06:59:48.138Z,81.58
2022-12-08T07:02:50.498Z,82.47
2022-12-08T07:06:03.243Z,82.76
2022-12-08T07:09:06.463Z,82.88
2022-12-08T07:12:08.988Z,83.06
2022-12-08T07:15:11.503Z,83.17
2022-12-08T07:18:14.090Z,83.24
2022-12-08T07:21:17.568Z,82.97
2022-12-08T07:24:20.173Z,83.15
2022-12-08T07:27:22.463Z,83.14
2022-12-08T07:30:25.024Z,82.72
2022-12-08T07:33:27.694Z,82.47
2022-12-08T07:36:30.310Z,82.20
2022-12-08T07:39:32.510Z,82.34
2022-12-08T07:42:35.437Z,82.35
2022-12-08T07:45:37.675Z,81.97
2022-12-08T07:48:40.740Z,81.60
2022-12-08T07:51:42.954Z,81.43
2022-12-08T07:54:45.586Z,81.07
2022-12-08T07:57:47.838Z,80.84
2022-12-08T08:00:50.489Z,80.86
2022-12-08T08:03:54.850Z,80.54
2022-12-08T08:06:57.337Z,80.44
2022-12-08T08:10:00.242Z,80.47
2022-12-08T08:13:02.792Z,80.23
2022-12-08T08:16:10.297Z,79.72
2022-12-08T08:19:12.656Z,79.39
2022-12-08T08:22:15.285Z,79.53
2022-12-08T08:25:18.959Z,79.67
2022-12-08T08:28:21.524Z,79.52
2022-12-08T08:31:27.268Z,79.56
2022-12-08T08:34:29.983Z,79.46
2022-12-08T08:37:32.359Z,79.54
2022-12-08T08:40:34.942Z,79.61
2022-12-08T08:43:38.678Z,79.56
2022-12-08T08:46:41.823Z,79.34
2022-12-08T08:49:44.123Z,79.30
2022-12-08T08:52:46.790Z,79.70
2022-12-08T08:55:50.158Z,79.41
2022-12-08T08:58:53.503Z,79.50
2022-12-08T09:01:56.278Z,78.97
2022-12-08T09:04:59.737Z,78.54
2022-12-08T09:08:02.229Z,78.55
2022-12-08T09:11:05.028Z,78.30
2022-12-08T09:14:07.472Z,78.16
2022-12-08T09:17:10.082Z,78.25
2022-12-08T09:20:12.611Z,78.39
2022-12-08T09:23:15.176Z,78.35
2022-12-08T09:26:17.624Z,78.33
2022-12-08T09:29:20.278Z,78.08
2022-12-08T09:32:22.656Z,77.92
2022-12-08T09:35:25.252Z,77.72
2022-12-08T09:38:27.560Z,77.85
2022-12-08T09:41:58.371Z,77.49
2022-12-08T09:45:12.107Z,77.43
2022-12-08T09:48:37.217Z,77.21
2022-12-08T09:51:42.395Z,77.17
2022-12-08T09:54:45.321Z,77.16
2022-12-08T09:57:57.914Z,76.89
2022-12-08T10:01:00.522Z,76.60
2022-12-08T10:04:03.242Z,75.98
2022-12-08T10:07:30.897Z,75.54
2022-12-08T10:10:57.965Z,75.36
2022-12-08T10:14:33.979Z,74.19
2022-12-08T10:17:42.606Z,73.97
2022-12-08T10:20:48.145Z,72.65
2022-12-08T10:24:02.071Z,73.46
2022-12-08T10:27:08.203Z,75.37
2022-12-08T10:30:16.584Z,74.34
2022-12-08T10:33:22.060Z,74.85
2022-12-08T10:36:54.381Z,75.80
2022-12-08T10:40:02.869Z,74.31
2022-12-08T10:43:07.045Z,72.97
2022-12-08T10:46:27.464Z,72.47
2022-12-08T10:49:32.438Z,72.58
2022-12-08T10:52:41.117Z,72.38
2022-12-08T10:55:46.441Z,72.34
2022-12-08T10:58:49.237Z,71.62
2022-12-08T11:01:54.583Z,72.20
2022-12-08T11:05:00.227Z,71.95
2022-12-08T11:08:04.893Z,72.01
2022-12-08T11:11:07.614Z,72.19
2022-12-08T11:14:18.382Z,72.36
2022-12-08T11:17:25.201Z,72.20
2022-12-08T11:20:28.313Z,72.33
2022-12-08T11:23:31.160Z,71.71
2022-12-08T11:26:37.011Z,70.78
2022-12-08T11:29:46.382Z,69.32
2022-12-08T11:32:52.999Z,68.52
2022-12-08T11:36:09.066Z,67.91
2022-12-08T11:39:13.208Z,67.00
2022-12-08T11:42:22.044Z,68.03
2022-12-08T11:45:30.088Z,70.88
2022-12-08T11:48:37.010Z,72.02
2022-12-08T11:51:46.986Z,69.56
2022-12-08T11:54:58.325Z,68.69
2022-12-08T11:58:18.820Z,67.93
2022-12-08T12:01:26.149Z,67.37
2022-12-08T12:04:37.128Z,69.42
2022-12-08T12:07:45.478Z,69.05
2022-12-08T12:11:10.305Z,69.71
2022-12-08T12:14:31.835Z,69.60
2022-12-08T12:18:05.141Z,67.79
2022-12-08T12:21:16.228Z,67.03
2022-12-08T12:24:50.310Z,67.11
2022-12-08T12:27:59.399Z,66.22
2022-12-08T12:31:08.537Z,66.21
2022-12-08T12:34:28.254Z,66.52
2022-12-08T12:37:45.833Z,65.82
2022-12-08T12:40:48.681Z,66.08
2022-12-08T12:44:08.293Z,65.83
2022-12-08T12:47:13.179Z,65.75
2022-12-08T12:50:45.905Z,65.69
2022-12-08T12:53:50.093Z,65.54
2022-12-08T12:56:57.124Z,65.84
2022-12-08T12:59:59.331Z,65.47
2022-12-08T13:03:02.022Z,65.58
2022-12-08T13:06:06.207Z,65.83
2022-12-08T13:09:31.760Z,66.25
2022-12-08T13:12:34.110Z,69.30
2022-12-08T13:15:48.521Z,71.46
2022-12-08T13:18:56.207Z,69.89
2022-12-08T13:22:00.226Z,67.89
2022-12-08T13:25:39.759Z,66.56
2022-12-08T13:29:01.412Z,66.18
2022-12-08T13:32:07.207Z,66.25
2022-12-08T13:35:11.980Z,70.10
2022-12-08T13:38:19.380Z,73.03
2022-12-08T13:41:34.645Z,74.10
2022-12-08T13:45:58.909Z,74.79
2022-12-08T13:59:19.450Z,74.74
2022-12-08T14:02:49.480Z,74.82
2022-12-08T14:09:21.166Z,71.54
2022-12-08T14:12:27.123Z,70.00
2022-12-08T14:15:37.232Z,69.29
2022-12-08T14:18:41.367Z,68.78
2022-12-08T14:21:51.212Z,68.10
2022-12-08T14:24:54.804Z,68.27
2022-12-08T14:28:01.254Z,67.76
2022-12-08T14:31:04.688Z,68.20
2022-12-08T14:34:07.146Z,67.95
2022-12-08T14:37:13.017Z,68.55
2022-12-08T14:40:23.032Z,73.78
2022-12-08T14:43:31.106Z,75.28
2022-12-08T14:46:33.942Z,75.66
2022-12-08T14:49:39.127Z,76.06
2022-12-08T14:52:44.420Z,76.09
2022-12-08T14:55:48.930Z,76.22
2022-12-08T14:59:05.830Z,76.09
2022-12-08T15:02:24.306Z,76.11
2022-12-08T15:05:30.887Z,75.70
2022-12-08T15:08:35.183Z,75.53
2022-12-08T15:11:37.456Z,75.50
2022-12-08T15:14:57.814Z,75.26
2022-12-08T15:18:20.871Z,74.87
2022-12-08T15:21:30.808Z,74.06
2022-12-08T15:24:35.585Z,74.34
2022-12-08T15:27:49.623Z,74.02
2022-12-08T15:30:53.765Z,72.57
2022-12-08T15:33:56.408Z,71.57
2022-12-08T15:36:58.727Z,72.13
2022-12-08T15:40:01.232Z,71.92
2022-12-08T15:43:03.636Z,71.52
2022-12-08T15:46:06.595Z,70.59
2022-12-08T15:49:17.765Z,70.87
2022-12-08T15:52:23.315Z,71.05
2022-12-08T15:55:25.600Z,71.13
2022-12-08T16:01:52.161Z,70.86
2022-12-08T16:12:09.554Z,70.64
2022-12-08T16:18:39.489Z,70.44
2022-12-08T16:25:21.635Z,70.68
2022-12-08T16:28:52.966Z,70.91
2022-12-08T16:31:47.569Z,71.10
2022-12-08T16:34:50.649Z,72.15
2022-12-08T16:37:55.653Z,72.80
2022-12-08T16:41:16.374Z,72.71
2022-12-08T16:44:18.898Z,72.11
2022-12-08T16:47:21.194Z,73.86
2022-12-08T16:50:44.864Z,73.88
2022-12-08T16:53:47.139Z,73.67
2022-12-08T16:56:49.715Z,74.52
2022-12-08T16:59:51.962Z,75.15
2022-12-08T17:02:55.373Z,75.58
2022-12-08T17:05:57.640Z,76.64
2022-12-08T17:09:00.277Z,76.76
2022-12-08T17:12:04.189Z,76.83
2022-12-08T17:15:09.249Z,76.88
2022-12-08T17:18:12.064Z,76.81
2022-12-08T17:21:17.021Z,76.77
2022-12-08T17:24:22.215Z,76.75
2022-12-08T17:27:25.425Z,76.96
2022-12-08T17:30:27.719Z,77.20
2022-12-08T17:33:30.233Z,76.93
2022-12-08T17:36:32.610Z,76.52
2022-12-08T17:39:35.269Z,75.90
2022-12-08T17:42:38.684Z,74.73
2022-12-08T17:45:46.882Z,73.66
2022-12-08T17:48:49.446Z,74.04
2022-12-08T17:51:54.554Z,74.66
2022-12-08T17:54:56.835Z,74.59
2022-12-08T17:57:59.398Z,74.35
2022-12-08T18:01:08.110Z,74.29
2022-12-08T18:04:11.870Z,74.31
2022-12-08T18:07:14.152Z,74.23
2022-12-08T18:10:18.379Z,73.38
2022-12-08T18:13:20.690Z,73.62
2022-12-08T18:16:25.844Z,73.96
2022-12-08T18:19:28.202Z,75.30
2022-12-08T18:22:30.710Z,76.05
2022-12-08T18:25:32.999Z,76.29
2022-12-08T18:28:36.633Z,76.57
2022-12-08T18:31:38.953Z,76.60
2022-12-08T18:34:41.796Z,76.70
2022-12-08T18:37:44.271Z,76.74
2022-12-08T18:40:46.829Z,76.98
2022-12-08T18:43:49.039Z,76.97
2022-12-08T18:46:51.576Z,76.83
2022-12-08T18:49:55.084Z,76.40
2022-12-08T18:52:57.752Z,76.19
2022-12-08T18:56:00.057Z,76.31
2022-12-08T18:59:08.535Z,75.87
2022-12-08T19:02:12.425Z,75.67
2022-12-08T19:05:15.282Z,75.81
2022-12-08T19:08:18.279Z,75.74
2022-12-08T19:11:26.739Z,74.38
2022-12-08T19:14:30.465Z,72.97
2022-12-08T19:17:33.186Z,73.00
2022-12-08T19:20:35.387Z,72.48
2022-12-08T19:23:38.930Z,72.87
2022-12-08T19:26:41.462Z,73.06
2022-12-08T19:29:44.051Z,72.47
2022-12-08T19:32:46.481Z,72.60
2022-12-08T19:35:52.733Z,72.69
2022-12-08T19:39:15.664Z,72.88
2022-12-08T19:42:39.888Z,73.16
2022-12-08T19:45:42.254Z,73.09
2022-12-08T19:48:45.012Z,73.62
2022-12-08T19:51:47.268Z,73.66
2022-12-08T19:54:49.874Z,74.04
2022-12-08T19:57:52.738Z,73.99
2022-12-08T20:00:55.559Z,74.22
2022-12-08T20:03:58.133Z,74.15
2022-12-08T20:07:00.624Z,74.13
2022-12-08T20:10:09.849Z,74.19
2022-12-08T20:13:30.989Z,74.40
2022-12-08T20:16:34.107Z,74.44
2022-12-08T20:19:36.603Z,74.48
2022-12-08T20:22:39.301Z,74.55
2022-12-08T20:25:44.059Z,74.90
2022-12-08T20:28:46.946Z,75.32
2022-12-08T20:31:49.378Z,75.52
2022-12-08T20:34:52.056Z,75.43
2022-12-08T20:37:54.384Z,75.79
2022-12-08T20:40:58.184Z,76.15
2022-12-08T20:44:00.458Z,76.14
2022-12-08T20:47:03.051Z,76.16
2022-12-08T20:50:07.037Z,76.51
2022-12-08T20:53:09.861Z,76.58
2022-12-08T20:56:17.473Z,76.50
2022-12-08T20:59:20.526Z,76.75
2022-12-08T21:02:22.958Z,77.00
2022-12-08T21:05:25.894Z,77.05
2022-12-08T21:08:28.522Z,77.19
2022-12-08T21:11:31.473Z,77.14
2022-12-08T21:14:34.008Z,76.91
2022-12-08T21:17:36.732Z,76.97
2022-12-08T21:20:39.134Z,76.84
2022-12-08T21:23:42.850Z,77.52
2022-12-08T21:26:45.298Z,78.01
2022-12-08T21:29:48.022Z,78.12
2022-12-08T21:32:50.611Z,78.29
2022-12-08T21:36:02.198Z,78.56
2022-12-08T21:39:11.268Z,78.43
2022-12-08T21:42:34.462Z,78.50
2022-12-08T21:45:37.184Z,78.68
2022-12-08T21:48:39.811Z,78.47
2022-12-08T21:51:42.810Z,78.69
2022-12-08T21:54:45.542Z,78.66
2022-12-08T21:57:47.887Z,78.54
2022-12-08T22:00:50.565Z,78.81
2022-12-08T22:03:53.748Z,79.04
2022-12-08T22:06:56.392Z,79.13
2022-12-08T22:09:59.345Z,79.05
2022-12-08T22:13:01.782Z,79.11
2022-12-08T22:16:07.594Z,79.08
2022-12-08T22:19:11.043Z,78.83
2022-12-08T22:22:13.716Z,79.65
2022-12-08T22:25:16.157Z,79.81
2022-12-08T22:28:18.697Z,79.56
2022-12-08T22:31:21.231Z,79.56
2022-12-08T22:34:23.927Z,79.36
2022-12-08T22:37:26.510Z,79.60
2022-12-08T22:40:29.468Z,79.56
2022-12-08T22:43:32.658Z,79.64
2022-12-08T22:46:35.886Z,79.81
2022-12-08T22:49:38.426Z,79.92
2022-12-08T22:52:41.098Z,79.80
2022-12-08T22:55:44.330Z,80.08
2022-12-08T22:58:47.424Z,80.04
2022-12-08T23:01:49.933Z,79.74
2022-12-08T23:04:56.356Z,79.75
2022-12-08T23:07:59.109Z,80.26
2022-12-08T23:11:01.731Z,80.20
2022-12-08T23:14:04.069Z,80.27
2022-12-08T23:17:07.005Z,80.55
2022-12-08T23:20:10.620Z,80.55
2022-12-08T23:23:13.664Z,80.54
2022-12-08T23:26:22.946Z,80.42
2022-12-08T23:29:25.727Z,80.46
2022-12-08T23:32:28.280Z,80.67
2022-12-08T23:35:31.317Z,81.00
2022-12-08T23:38:34.024Z,81.02
2022-12-08T23:41:37.065Z,81.14
2022-12-08T23:44:39.588Z,81.18
2022-12-08T23:47:42.257Z,81.16
2022-12-08T23:50:44.769Z,81.03
2022-12-08T23:53:47.457Z,81.20
2022-12-08T23:56:49.750Z,80.97
2022-12-08T23:59:52.463Z,81.20
